createdAt,value
2023-03-26T00:01:46.823Z,7.70
2023-03-26T00:04:19.710Z,7.70
2023-03-26T00:06:50.425Z,7.80
2023-03-26T00:09:20.690Z,7.80
2023-03-26T00:11:49.404Z,7.80
2023-03-26T00:14:18.249Z,7.90
2023-03-26T00:16:47.475Z,7.90
2023-03-26T00:19:16.979Z,8.10
2023-03-26T00:21:48.406Z,8.10
2023-03-26T00:24:17.603Z,8.10
2023-03-26T00:26:53.371Z,8.30
2023-03-26T00:29:23.132Z,8.30
2023-03-26T00:31:52.321Z,8.20
2023-03-26T00:34:23.092Z,8.20
2023-03-26T00:36:54.886Z,8.20
2023-03-26T00:39:24.169Z,8.20
2023-03-26T00:41:54.772Z,8.10
2023-03-26T00:44:23.801Z,8.10
2023-03-26T00:46:52.766Z,8.10
2023-03-26T00:49:21.436Z,8.10
2023-03-26T00:51:50.046Z,8.10
2023-03-26T00:54:18.684Z,8.00
2023-03-26T00:56:47.416Z,8.00
2023-03-26T00:59:17.759Z,8.00
2023-03-26T01:01:47.216Z,8.00
2023-03-26T01:04:30.979Z,8.00
2023-03-26T01:07:04.145Z,8.00
2023-03-26T01:09:37.020Z,8.10
2023-03-26T01:12:09.809Z,8.10
2023-03-26T01:14:40.555Z,8.10
2023-03-26T01:17:09.815Z,8.10
2023-03-26T01:19:47.014Z,8.10
2023-03-26T01:22:18.066Z,8.20
2023-03-26T01:24:53.746Z,8.20
2023-03-26T01:27:33.718Z,8.20
2023-03-26T01:30:10.664Z,8.20
2023-03-26T01:32:51.776Z,8.20
2023-03-26T01:35:33.628Z,8.20
2023-03-26T01:38:13.792Z,8.20
2023-03-26T01:40:49.683Z,8.20
2023-03-26T01:43:27.414Z,8.10
2023-03-26T01:45:57.447Z,8.20
2023-03-26T01:48:32.865Z,8.20
2023-03-26T01:51:01.473Z,8.20
2023-03-26T01:53:30.655Z,8.20
2023-03-26T01:56:13.432Z,8.20
2023-03-26T01:58:52.919Z,8.20
2023-03-26T02:01:30.323Z,8.20
2023-03-26T02:04:07.734Z,8.20
2023-03-26T02:06:43.617Z,8.20
2023-03-26T02:09:16.009Z,8.10
2023-03-26T02:11:47.874Z,8.10
2023-03-26T02:14:16.872Z,8.10
2023-03-26T02:16:47.207Z,8.00
2023-03-26T02:19:21.949Z,7.90
2023-03-26T02:21:52.291Z,7.90
2023-03-26T02:24:22.254Z,7.90
2023-03-26T02:26:58.302Z,7.80
2023-03-26T02:29:27.824Z,7.60
2023-03-26T02:31:56.772Z,7.60
2023-03-26T02:34:25.549Z,7.60
2023-03-26T02:36:57.347Z,7.50
2023-03-26T02:39:27.790Z,7.40
2023-03-26T02:42:01.716Z,7.30
2023-03-26T02:44:32.741Z,7.20
2023-03-26T02:47:01.530Z,7.10
2023-03-26T02:49:48.797Z,7.10
2023-03-26T02:52:25.162Z,7.00
2023-03-26T02:54:57.017Z,6.90
2023-03-26T02:57:28.890Z,6.80
2023-03-26T03:00:17.143Z,6.80
2023-03-26T03:03:07.101Z,6.70
2023-03-26T03:05:38.159Z,6.60
2023-03-26T03:08:28.456Z,6.50
2023-03-26T03:11:12.131Z,6.50
2023-03-26T03:13:47.085Z,6.40
2023-03-26T03:16:34.963Z,6.30
2023-03-26T03:19:23.246Z,6.30
2023-03-26T03:21:52.023Z,6.30
2023-03-26T03:24:20.999Z,6.20
2023-03-26T03:26:50.496Z,6.20
2023-03-26T03:29:37.906Z,6.20
2023-03-26T03:32:27.851Z,6.10
2023-03-26T03:35:01.121Z,6.10
2023-03-26T03:37:30.198Z,6.10
2023-03-26T03:40:00.506Z,6.10
2023-03-26T03:42:32.892Z,6.00
2023-03-26T03:45:06.591Z,6.00
2023-03-26T03:47:54.243Z,6.00
2023-03-26T03:50:30.230Z,5.90
2023-03-26T03:53:15.968Z,5.90
2023-03-26T03:55:53.373Z,5.90
2023-03-26T03:58:28.059Z,5.90
2023-03-26T04:01:03.240Z,5.90
2023-03-26T04:03:50.814Z,6.00
2023-03-26T04:06:25.410Z,6.00
2023-03-26T04:08:55.740Z,6.10
2023-03-26T04:11:25.016Z,6.10
2023-03-26T04:14:21.461Z,6.10
2023-03-26T04:17:02.345Z,6.10
2023-03-26T04:19:33.291Z,6.10
2023-03-26T04:22:03.183Z,6.20
2023-03-26T04:24:38.520Z,6.20
2023-03-26T04:27:30.436Z,6.20
2023-03-26T04:30:15.750Z,6.20
2023-03-26T04:32:49.076Z,6.20
2023-03-26T04:35:19.697Z,6.20
2023-03-26T04:37:54.569Z,6.20
2023-03-26T04:40:37.523Z,6.10
2023-03-26T04:43:16.497Z,6.10
2023-03-26T04:46:04.736Z,6.10
2023-03-26T04:48:41.158Z,6.10
2023-03-26T04:51:18.611Z,6.10
2023-03-26T04:53:53.457Z,6.00
2023-03-26T04:56:37.709Z,6.10
2023-03-26T04:59:30.331Z,6.10
2023-03-26T05:02:00.385Z,6.10
2023-03-26T05:04:36.949Z,6.20
2023-03-26T05:07:06.079Z,6.20
2023-03-26T05:09:41.573Z,6.20
2023-03-26T05:12:16.526Z,6.30
2023-03-26T05:14:59.278Z,6.30
2023-03-26T05:17:41.814Z,6.30
2023-03-26T05:20:21.887Z,6.40
2023-03-26T05:22:52.162Z,6.40
2023-03-26T05:25:26.164Z,6.50
2023-03-26T05:27:55.596Z,6.50
2023-03-26T05:30:28.075Z,6.50
2023-03-26T05:33:02.926Z,6.50
2023-03-26T05:35:40.030Z,6.60
2023-03-26T05:38:10.931Z,6.60
2023-03-26T05:40:39.894Z,6.70
2023-03-26T05:43:09.814Z,6.80
2023-03-26T05:45:49.304Z,6.80
2023-03-26T05:48:38.226Z,6.90
2023-03-26T05:51:09.590Z,6.90
2023-03-26T05:53:43.117Z,7.00
2023-03-26T05:56:30.067Z,7.00
2023-03-26T05:59:17.107Z,7.10
2023-03-26T06:02:14.813Z,7.20
2023-03-26T06:05:08.161Z,7.30
2023-03-26T06:07:54.200Z,7.40
2023-03-26T06:10:23.187Z,7.50
2023-03-26T06:12:51.944Z,7.60
2023-03-26T06:15:21.357Z,7.70
2023-03-26T06:17:59.065Z,7.80
2023-03-26T06:20:49.146Z,7.90
2023-03-26T06:23:29.961Z,8.00
2023-03-26T06:26:25.045Z,8.10
2023-03-26T06:29:32.031Z,8.20
2023-03-26T06:32:19.753Z,8.30
2023-03-26T06:34:53.545Z,8.40
2023-03-26T06:37:22.169Z,8.50
2023-03-26T06:39:56.575Z,8.60
2023-03-26T06:43:07.052Z,8.60
2023-03-26T06:45:53.115Z,8.70
2023-03-26T06:48:40.921Z,8.80
2023-03-26T06:51:28.312Z,8.90
2023-03-26T06:54:15.854Z,9.00
2023-03-26T06:56:56.073Z,9.20
2023-03-26T06:59:43.432Z,9.30
2023-03-26T07:02:30.464Z,9.40
2023-03-26T07:05:17.982Z,9.50
2023-03-26T07:08:05.701Z,9.60
2023-03-26T07:11:07.087Z,9.70
2023-03-26T07:14:15.635Z,9.80
2023-03-26T07:17:13.426Z,9.80
2023-03-26T07:19:54.326Z,9.80
2023-03-26T07:22:27.623Z,9.80
2023-03-26T07:25:18.588Z,9.80
2023-03-26T07:27:57.632Z,9.70
2023-03-26T07:31:00.888Z,9.70
2023-03-26T07:34:02.445Z,9.70
2023-03-26T07:36:48.584Z,9.70
2023-03-26T07:39:55.945Z,9.70
2023-03-26T07:42:47.819Z,9.70
2023-03-26T07:45:40.888Z,9.80
2023-03-26T07:48:40.828Z,9.80
2023-03-26T07:51:21.381Z,10.00
2023-03-26T07:54:17.132Z,10.20
2023-03-26T07:57:32.892Z,10.30
2023-03-26T08:00:30.108Z,10.40
2023-03-26T08:03:26.619Z,10.40
2023-03-26T08:06:04.614Z,10.40
2023-03-26T08:08:48.157Z,10.30
2023-03-26T08:11:49.149Z,10.30
2023-03-26T08:14:32.796Z,10.20
2023-03-26T08:17:07.761Z,10.10
2023-03-26T08:20:02.359Z,10.10
2023-03-26T08:22:37.422Z,10.00
2023-03-26T08:25:24.474Z,10.10
2023-03-26T08:28:05.210Z,10.20
2023-03-26T08:30:33.979Z,10.20
2023-03-26T08:33:14.130Z,10.40
2023-03-26T08:35:43.081Z,10.50
2023-03-26T08:38:14.901Z,10.40
2023-03-26T08:41:19.514Z,10.40
2023-03-26T08:44:22.419Z,10.20
2023-03-26T08:47:24.241Z,10.00
2023-03-26T08:50:31.377Z,9.80
2023-03-26T08:53:41.255Z,9.70
2023-03-26T08:56:21.839Z,9.70
2023-03-26T08:59:27.583Z,9.80
2023-03-26T09:02:22.800Z,9.90
2023-03-26T09:05:21.387Z,9.90
2023-03-26T09:08:07.284Z,9.80
2023-03-26T09:11:04.406Z,9.80
2023-03-26T09:14:15.735Z,9.70
2023-03-26T09:17:19.649Z,9.70
2023-03-26T09:20:08.901Z,9.60
2023-03-26T09:23:09.716Z,9.50
2023-03-26T09:26:03.012Z,9.40
2023-03-26T09:29:04.718Z,9.30
2023-03-26T09:32:10.766Z,9.30
2023-03-26T09:34:57.629Z,9.30
2023-03-26T09:37:30.056Z,9.30
2023-03-26T09:40:10.873Z,9.30
2023-03-26T09:42:45.455Z,9.30
2023-03-26T09:45:41.104Z,9.40
2023-03-26T09:48:36.085Z,9.40
2023-03-26T09:51:30.013Z,9.30
2023-03-26T09:54:29.512Z,9.30
2023-03-26T09:57:05.777Z,9.30
2023-03-26T09:59:52.290Z,9.50
2023-03-26T10:02:47.812Z,9.60
2023-03-26T10:05:42.550Z,9.60
2023-03-26T10:08:31.593Z,9.50
2023-03-26T10:11:06.546Z,9.40
2023-03-26T10:13:49.653Z,9.30
2023-03-26T10:16:27.440Z,9.20
2023-03-26T10:19:08.417Z,9.20
2023-03-26T10:21:45.985Z,9.30
2023-03-26T10:24:48.581Z,9.30
2023-03-26T10:27:28.355Z,9.30
2023-03-26T10:30:36.539Z,9.20
2023-03-26T10:33:16.261Z,9.00
2023-03-26T10:35:54.780Z,8.90
2023-03-26T10:38:34.656Z,8.70
2023-03-26T10:41:10.192Z,8.60
2023-03-26T10:44:07.291Z,8.60
2023-03-26T10:47:08.516Z,8.60
2023-03-26T10:49:56.131Z,8.60
2023-03-26T10:52:27.468Z,8.70
2023-03-26T10:54:57.880Z,8.70
2023-03-26T10:57:35.762Z,8.80
2023-03-26T11:00:15.776Z,8.80
2023-03-26T11:02:50.655Z,8.90
2023-03-26T11:05:47.946Z,8.90
2023-03-26T11:08:31.092Z,9.00
2023-03-26T11:11:10.600Z,9.00
2023-03-26T11:13:49.521Z,9.20
2023-03-26T11:16:24.927Z,9.30
2023-03-26T11:19:00.967Z,9.30
2023-03-26T11:21:39.486Z,9.40
2023-03-26T11:24:39.983Z,9.60
2023-03-26T11:27:17.444Z,9.70
2023-03-26T11:29:54.940Z,9.70
2023-03-26T11:32:27.126Z,9.60
2023-03-26T11:35:02.550Z,9.50
2023-03-26T11:37:35.688Z,9.40
2023-03-26T11:40:09.196Z,9.30
2023-03-26T11:42:38.196Z,9.10
2023-03-26T11:45:14.283Z,9.00
2023-03-26T11:47:48.683Z,8.90
2023-03-26T11:50:21.879Z,8.80
2023-03-26T11:52:54.383Z,8.80
2023-03-26T11:55:24.389Z,8.70
2023-03-26T11:57:59.450Z,8.70
2023-03-26T12:00:29.728Z,8.70
2023-03-26T12:02:59.771Z,8.80
2023-03-26T12:05:36.753Z,8.80
2023-03-26T12:08:20.888Z,8.80
2023-03-26T12:11:04.771Z,8.90
2023-03-26T12:13:41.950Z,8.90
2023-03-26T12:16:14.926Z,9.00
2023-03-26T12:18:44.873Z,9.10
2023-03-26T12:21:15.071Z,9.30
2023-03-26T12:23:57.749Z,9.60
2023-03-26T12:26:39.789Z,9.80
2023-03-26T12:29:12.219Z,10.10
2023-03-26T12:31:51.205Z,10.40
2023-03-26T12:34:21.965Z,10.70
2023-03-26T12:36:53.762Z,11.20
2023-03-26T12:40:07.133Z,11.60
2023-03-26T12:44:46.608Z,12.20
2023-03-26T12:45:23.991Z,12.80
2023-03-26T12:48:01.815Z,13.30
2023-03-26T12:50:51.268Z,13.60
2023-03-26T12:53:37.921Z,13.80
2023-03-26T12:56:20.045Z,13.60
2023-03-26T12:59:11.896Z,13.50
2023-03-26T13:01:53.096Z,13.60
2023-03-26T13:04:38.009Z,13.70
2023-03-26T13:07:17.536Z,13.80
2023-03-26T13:10:11.803Z,14.00
2023-03-26T13:12:48.990Z,14.10
2023-03-26T13:15:26.998Z,14.20
2023-03-26T13:18:07.872Z,14.40
2023-03-26T13:20:50.633Z,14.70
2023-03-26T13:23:32.182Z,14.80
2023-03-26T13:26:33.421Z,15.00
2023-03-26T13:29:14.420Z,15.10
2023-03-26T13:31:51.407Z,15.00
2023-03-26T13:34:31.298Z,14.80
2023-03-26T13:37:10.705Z,14.70
2023-03-26T13:39:50.028Z,14.50
2023-03-26T13:42:40.622Z,14.30
2023-03-26T13:45:23.462Z,14.10
2023-03-26T13:47:56.062Z,14.00
2023-03-26T13:50:28.273Z,13.90
2023-03-26T13:53:01.789Z,13.80
2023-03-26T13:55:34.234Z,13.60
2023-03-26T13:58:11.898Z,13.30
2023-03-26T14:00:54.670Z,12.90
2023-03-26T14:03:33.544Z,12.50
2023-03-26T14:06:09.472Z,12.10
2023-03-26T14:08:42.986Z,11.60
2023-03-26T14:11:17.531Z,11.20
2023-03-26T14:13:51.626Z,11.20
2023-03-26T14:16:27.272Z,11.10
2023-03-26T14:19:04.852Z,11.00
2023-03-26T14:21:57.284Z,11.00
2023-03-26T14:24:50.244Z,11.00
2023-03-26T14:27:42.306Z,10.90
2023-03-26T14:30:58.945Z,10.90
2023-03-26T14:33:58.445Z,11.00
2023-03-26T14:36:54.862Z,11.10
2023-03-26T14:39:41.491Z,11.20
2023-03-26T14:42:19.489Z,11.40
2023-03-26T14:45:18.331Z,11.60
2023-03-26T14:47:53.950Z,11.80
2023-03-26T14:50:55.268Z,12.10
2023-03-26T14:53:33.527Z,12.40
2023-03-26T14:56:44.798Z,12.60
2023-03-26T14:59:49.322Z,12.70
2023-03-26T15:02:57.937Z,12.80
2023-03-26T15:05:59.386Z,12.90
2023-03-26T15:08:59.769Z,12.90
2023-03-26T15:11:35.119Z,13.00
2023-03-26T15:14:54.358Z,13.30
2023-03-26T15:18:03.115Z,13.50
2023-03-26T15:21:23.951Z,13.50
2023-03-26T15:24:25.308Z,13.60
2023-03-26T15:27:19.941Z,13.70
2023-03-26T15:30:15.520Z,14.00
2023-03-26T15:33:24.746Z,14.20
2023-03-26T15:36:34.521Z,14.40
2023-03-26T15:39:38.113Z,14.50
2023-03-26T15:42:13.646Z,14.70
2023-03-26T15:44:55.573Z,14.80
2023-03-26T15:47:57.274Z,14.70
2023-03-26T15:50:45.841Z,14.50
2023-03-26T15:53:23.529Z,14.30
2023-03-26T15:56:07.756Z,14.10
2023-03-26T15:58:48.016Z,14.00
2023-03-26T16:01:29.385Z,14.00
2023-03-26T16:04:10.439Z,13.80
2023-03-26T16:06:48.769Z,13.70
2023-03-26T16:09:40.401Z,13.60
2023-03-26T16:12:33.292Z,13.40
2023-03-26T16:15:27.925Z,13.30
2023-03-26T16:18:33.527Z,13.20
2023-03-26T16:21:38.412Z,13.00
2023-03-26T16:24:21.815Z,12.90
2023-03-26T16:27:09.306Z,12.80
2023-03-26T16:30:12.004Z,12.80
2023-03-26T16:32:48.145Z,12.70
2023-03-26T16:35:58.694Z,12.60
2023-03-26T16:38:27.637Z,12.60
2023-03-26T16:41:04.227Z,12.50
2023-03-26T16:43:47.993Z,12.40
2023-03-26T16:46:28.689Z,12.30
2023-03-26T16:49:05.105Z,12.20
2023-03-26T16:51:54.358Z,12.10
2023-03-26T16:54:29.458Z,12.10
2023-03-26T16:57:03.241Z,12.00
2023-03-26T17:00:05.162Z,11.90
2023-03-26T17:02:46.473Z,11.80
2023-03-26T17:05:21.346Z,11.60
2023-03-26T17:08:01.332Z,11.60
2023-03-26T17:10:37.217Z,11.50
2023-03-26T17:13:11.112Z,11.30
2023-03-26T17:15:49.683Z,11.20
2023-03-26T17:18:33.571Z,11.20
2023-03-26T17:21:10.422Z,11.10
2023-03-26T17:23:56.654Z,11.00
2023-03-26T17:26:32.889Z,10.90
2023-03-26T17:29:32.551Z,10.80
2023-03-26T17:32:08.749Z,10.70
2023-03-26T17:35:00.804Z,10.70
2023-03-26T17:37:41.083Z,10.70
2023-03-26T17:40:51.078Z,10.80
2023-03-26T17:43:40.460Z,10.80
2023-03-26T17:46:23.343Z,10.80
2023-03-26T17:48:59.531Z,10.80
2023-03-26T17:51:46.099Z,10.80
2023-03-26T17:54:23.610Z,10.90
2023-03-26T17:56:54.015Z,11.00
2023-03-26T17:59:26.392Z,10.90
2023-03-26T18:01:59.109Z,11.00
2023-03-26T18:04:32.964Z,11.00
2023-03-26T18:07:37.780Z,11.00
2023-03-26T18:10:22.549Z,10.90
2023-03-26T18:13:30.094Z,10.80
2023-03-26T18:16:11.247Z,10.80
2023-03-26T18:18:49.309Z,10.70
2023-03-26T18:21:24.118Z,10.60
2023-03-26T18:23:53.811Z,10.50
2023-03-26T18:26:37.605Z,10.40
2023-03-26T18:29:20.869Z,10.40
2023-03-26T18:31:51.870Z,10.30
2023-03-26T18:34:21.354Z,10.20
2023-03-26T18:37:02.322Z,10.20
2023-03-26T18:39:31.127Z,10.10
2023-03-26T18:42:01.703Z,10.00
2023-03-26T18:44:31.096Z,9.90
2023-03-26T18:46:59.795Z,9.80
2023-03-26T18:49:29.884Z,9.80
2023-03-26T18:51:58.625Z,9.70
2023-03-26T18:54:32.397Z,9.70
2023-03-26T18:57:15.917Z,9.60
2023-03-26T18:59:45.678Z,9.60
2023-03-26T19:02:16.458Z,9.50
2023-03-26T19:04:47.064Z,9.40
2023-03-26T19:07:22.490Z,9.40
2023-03-26T19:09:56.346Z,9.30
2023-03-26T19:12:32.593Z,9.20
2023-03-26T19:15:08.318Z,9.10
2023-03-26T19:17:41.394Z,9.00
2023-03-26T19:20:17.533Z,8.90
2023-03-26T19:22:47.828Z,8.80
2023-03-26T19:25:23.124Z,8.70
2023-03-26T19:27:53.524Z,8.60
2023-03-26T19:30:30.504Z,8.60
2023-03-26T19:33:12.771Z,8.60
2023-03-26T19:35:43.828Z,8.50
2023-03-26T19:38:23.664Z,8.50
2023-03-26T19:40:55.807Z,8.50
2023-03-26T19:43:26.908Z,8.50
2023-03-26T19:46:00.352Z,8.50
2023-03-26T19:48:45.676Z,8.40
2023-03-26T19:51:22.071Z,8.50
2023-03-26T19:53:55.099Z,8.50
2023-03-26T19:56:24.538Z,8.50
2023-03-26T19:58:55.873Z,8.50
2023-03-26T20:01:27.339Z,8.50
2023-03-26T20:03:59.125Z,8.50
2023-03-26T20:06:53.129Z,8.50
2023-03-26T20:09:21.882Z,8.40
2023-03-26T20:11:52.648Z,8.40
2023-03-26T20:14:26.256Z,8.30
2023-03-26T20:16:55.400Z,8.30
2023-03-26T20:19:24.063Z,8.20
2023-03-26T20:21:53.120Z,8.10
2023-03-26T20:24:24.821Z,8.10
2023-03-26T20:26:53.513Z,8.10
2023-03-26T20:29:23.781Z,8.20
2023-03-26T20:31:52.538Z,8.10
2023-03-26T20:34:23.575Z,8.10
2023-03-26T20:36:55.412Z,8.10
2023-03-26T20:39:25.035Z,8.10
2023-03-26T20:41:55.301Z,8.10
2023-03-26T20:44:26.925Z,8.10
2023-03-26T20:46:56.603Z,8.10
2023-03-26T20:49:25.299Z,8.10
2023-03-26T20:51:54.111Z,8.10
2023-03-26T20:54:24.728Z,8.10
2023-03-26T20:56:54.985Z,8.00
2023-03-26T20:59:27.778Z,8.00
2023-03-26T21:01:59.419Z,8.00
2023-03-26T21:04:28.505Z,8.00
2023-03-26T21:07:07.347Z,8.00
2023-03-26T21:09:40.344Z,8.00
2023-03-26T21:12:11.340Z,8.00
2023-03-26T21:14:44.100Z,8.00
2023-03-26T21:17:16.699Z,8.00
2023-03-26T21:19:46.766Z,8.00
2023-03-26T21:22:26.961Z,8.00
2023-03-26T21:25:10.489Z,8.00
2023-03-26T21:27:46.710Z,8.00
2023-03-26T21:30:17.885Z,8.00
2023-03-26T21:32:47.449Z,8.00
2023-03-26T21:35:17.621Z,8.00
2023-03-26T21:37:48.812Z,8.00
2023-03-26T21:40:18.828Z,8.00
2023-03-26T21:42:49.677Z,8.00
2023-03-26T21:45:21.748Z,7.90
2023-03-26T21:47:51.135Z,7.90
2023-03-26T21:50:23.116Z,7.90
2023-03-26T21:52:52.666Z,7.90
2023-03-26T21:55:22.922Z,7.90
2023-03-26T21:58:18.395Z,7.90
2023-03-26T22:01:02.880Z,7.90
2023-03-26T22:03:41.139Z,7.90
2023-03-26T22:06:14.987Z,8.00
2023-03-26T22:08:44.193Z,7.90
2023-03-26T22:11:13.654Z,8.00
2023-03-26T22:13:42.352Z,7.90
2023-03-26T22:16:12.962Z,8.00
2023-03-26T22:19:07.573Z,8.00
2023-03-26T22:21:36.253Z,7.90
2023-03-26T22:24:07.066Z,7.90
2023-03-26T22:26:37.169Z,7.90
2023-03-26T22:29:06.236Z,8.00
2023-03-26T22:31:38.971Z,8.00
2023-03-26T22:34:08.067Z,8.00
2023-03-26T22:36:39.777Z,8.00
2023-03-26T22:39:09.110Z,8.00
2023-03-26T22:41:37.971Z,8.00
2023-03-26T22:44:19.062Z,8.00
2023-03-26T22:46:51.711Z,8.00
2023-03-26T22:49:20.568Z,8.00
2023-03-26T22:51:50.534Z,8.00
2023-03-26T22:54:19.332Z,8.00
2023-03-26T22:56:48.312Z,8.00
2023-03-26T22:59:17.105Z,8.00
2023-03-26T23:01:46.549Z,7.90
2023-03-26T23:04:31.227Z,7.90
2023-03-26T23:07:01.111Z,7.90
2023-03-26T23:09:29.822Z,7.90
2023-03-26T23:11:58.680Z,7.90
2023-03-26T23:14:28.718Z,7.80
2023-03-26T23:16:57.426Z,7.80
2023-03-26T23:19:30.149Z,7.70
2023-03-26T23:21:58.969Z,7.60
2023-03-26T23:24:27.687Z,7.50
2023-03-26T23:26:56.486Z,7.30
2023-03-26T23:29:25.227Z,7.30
2023-03-26T23:31:54.640Z,7.30
2023-03-26T23:34:23.485Z,7.20
2023-03-26T23:36:53.902Z,7.10
2023-03-26T23:39:22.697Z,7.10
2023-03-26T23:41:51.309Z,7.00
2023-03-26T23:44:20.089Z,7.00
2023-03-26T23:46:48.692Z,7.00
2023-03-26T23:49:17.442Z,6.90
2023-03-26T23:51:46.141Z,7.00
2023-03-26T23:54:16.224Z,6.90
2023-03-26T23:56:44.927Z,6.90
2023-03-26T23:59:13.784Z,6.90
